createdAt,value
2019-05-16T00:00:58.795Z,2.61
2019-05-16T00:02:01.343Z,2.53
2019-05-16T00:02:58.835Z,2.57
2019-05-16T00:03:58.018Z,2.47
2019-05-16T00:04:59.128Z,2.47
2019-05-16T00:05:58.384Z,2.58
2019-05-16T00:06:58.440Z,2.60
2019-05-16T00:07:58.962Z,2.55
2019-05-16T00:08:58.602Z,2.57
2019-05-16T00:09:59.054Z,2.54
2019-05-16T00:10:58.241Z,2.60
2019-05-16T00:11:58.092Z,2.54
2019-05-16T00:12:59.660Z,2.60
2019-05-16T00:13:57.917Z,2.54
2019-05-16T00:14:58.224Z,2.58
2019-05-16T00:15:58.774Z,2.57
2019-05-16T00:16:58.861Z,2.65
2019-05-16T00:17:58.297Z,2.58
2019-05-16T00:18:58.300Z,2.61
2019-05-16T00:19:58.879Z,2.58
2019-05-16T00:20:58.427Z,2.50
2019-05-16T00:22:08.774Z,2.51
2019-05-16T00:22:58.977Z,2.48
2019-05-16T00:23:58.650Z,2.53
2019-05-16T00:24:58.026Z,2.51
2019-05-16T00:25:58.570Z,2.48
2019-05-16T00:26:58.048Z,2.51
2019-05-16T00:27:58.699Z,2.43
2019-05-16T00:28:58.888Z,2.50
2019-05-16T00:29:58.126Z,2.42
2019-05-16T00:30:59.159Z,2.42
2019-05-16T00:31:58.015Z,2.35
2019-05-16T00:32:58.866Z,2.36
2019-05-16T00:33:57.914Z,2.36
2019-05-16T00:34:58.343Z,2.33
2019-05-16T00:36:05.190Z,2.35
2019-05-16T00:36:58.495Z,2.21
2019-05-16T00:37:58.979Z,2.12
2019-05-16T00:38:57.916Z,2.10
2019-05-16T00:39:58.817Z,2.07
2019-05-16T00:40:59.072Z,2.24
2019-05-16T00:41:58.414Z,2.14
2019-05-16T00:42:58.866Z,2.21
2019-05-16T00:43:57.758Z,2.18
2019-05-16T00:44:58.344Z,2.17
2019-05-16T00:45:58.910Z,2.17
2019-05-16T00:46:58.100Z,2.22
2019-05-16T00:47:58.486Z,2.22
2019-05-16T00:48:58.916Z,2.11
2019-05-16T00:49:58.219Z,2.14
2019-05-16T00:50:58.411Z,2.07
2019-05-16T00:51:58.497Z,2.12
2019-05-16T00:52:58.997Z,2.22
2019-05-16T00:54:04.305Z,2.21
2019-05-16T00:54:58.016Z,2.28
2019-05-16T00:55:58.471Z,2.25
2019-05-16T00:56:57.836Z,2.24
2019-05-16T00:57:58.363Z,2.12
2019-05-16T00:58:58.741Z,2.14
2019-05-16T00:59:59.184Z,2.12
2019-05-16T01:00:59.254Z,2.15
2019-05-16T01:01:58.761Z,2.12
2019-05-16T01:02:57.838Z,2.11
2019-05-16T01:03:58.591Z,2.01
2019-05-16T01:04:58.990Z,2.01
2019-05-16T01:05:58.214Z,2.04
2019-05-16T01:06:58.973Z,2.06
2019-05-16T01:07:58.459Z,1.93
2019-05-16T01:08:57.992Z,2.06
2019-05-16T01:09:58.292Z,2.03
2019-05-16T01:10:58.659Z,1.92
2019-05-16T01:11:57.968Z,1.97
2019-05-16T01:12:58.482Z,1.95
2019-05-16T01:13:57.836Z,2.01
2019-05-16T01:14:58.450Z,2.04
2019-05-16T01:15:57.933Z,1.93
2019-05-16T01:16:58.124Z,2.01
2019-05-16T01:17:58.860Z,2.06
2019-05-16T01:18:59.017Z,2.06
2019-05-16T01:19:57.856Z,1.93
2019-05-16T01:20:58.564Z,1.93
2019-05-16T01:21:58.979Z,1.99
2019-05-16T01:22:58.149Z,2.00
2019-05-16T01:23:58.599Z,1.92
2019-05-16T01:24:58.529Z,1.97
2019-05-16T01:26:04.610Z,1.95
2019-05-16T01:26:57.805Z,1.97
2019-05-16T01:27:58.303Z,1.95
2019-05-16T01:28:57.736Z,1.93
2019-05-16T01:29:58.392Z,1.95
2019-05-16T01:30:58.022Z,1.91
2019-05-16T01:31:59.065Z,1.82
2019-05-16T01:32:58.269Z,1.80
2019-05-16T01:33:58.406Z,1.81
2019-05-16T01:34:58.844Z,1.91
2019-05-16T01:35:58.512Z,1.87
2019-05-16T01:36:58.952Z,1.92
2019-05-16T01:37:58.102Z,1.91
2019-05-16T01:38:58.447Z,1.84
2019-05-16T01:39:58.743Z,1.89
2019-05-16T01:40:58.301Z,1.92
2019-05-16T01:41:58.687Z,1.92
2019-05-16T01:42:57.886Z,1.84
2019-05-16T01:43:58.506Z,1.93
2019-05-16T01:44:57.820Z,1.91
2019-05-16T01:45:57.818Z,1.93
2019-05-16T01:46:58.578Z,1.92
2019-05-16T01:47:58.727Z,2.00
2019-05-16T01:48:57.764Z,1.92
2019-05-16T01:49:58.073Z,1.97
2019-05-16T01:50:58.339Z,1.99
2019-05-16T01:51:57.866Z,1.89
2019-05-16T01:52:57.902Z,2.00
2019-05-16T01:53:58.009Z,1.95
2019-05-16T01:54:58.616Z,1.92
2019-05-16T01:55:58.044Z,1.95
2019-05-16T01:56:56.658Z,1.93
2019-05-16T01:58:04.155Z,1.95
2019-05-16T01:58:58.253Z,1.95
2019-05-16T01:59:58.763Z,1.97
2019-05-16T02:01:06.054Z,1.95
2019-05-16T02:02:00.659Z,1.87
2019-05-16T02:02:57.928Z,1.87
2019-05-16T02:03:58.653Z,1.87
2019-05-16T02:04:58.899Z,1.87
2019-05-16T02:05:58.466Z,1.84
2019-05-16T02:06:58.507Z,1.85
2019-05-16T02:07:58.375Z,1.87
2019-05-16T02:08:57.938Z,1.97
2019-05-16T02:09:58.221Z,1.87
2019-05-16T02:10:58.402Z,1.92
2019-05-16T02:11:58.744Z,1.97
2019-05-16T02:12:58.108Z,1.95
2019-05-16T02:13:58.439Z,1.95
2019-05-16T02:14:58.615Z,1.93
2019-05-16T02:15:56.462Z,1.99
2019-05-16T02:16:58.110Z,2.01
2019-05-16T02:17:58.613Z,2.00
2019-05-16T02:18:58.739Z,1.95
2019-05-16T02:19:57.819Z,2.03
2019-05-16T02:21:00.915Z,1.99
2019-05-16T02:21:56.392Z,2.01
2019-05-16T02:22:58.447Z,2.06
2019-05-16T02:23:58.558Z,1.97
2019-05-16T02:24:58.366Z,1.99
2019-05-16T02:25:58.003Z,2.11
2019-05-16T02:26:58.982Z,2.11
2019-05-16T02:27:58.829Z,2.07
2019-05-16T02:28:56.332Z,1.95
2019-05-16T02:30:03.794Z,2.06
2019-05-16T02:30:56.297Z,2.06
2019-05-16T02:31:56.288Z,2.03
2019-05-16T02:32:56.284Z,2.04
2019-05-16T02:33:56.267Z,1.99
2019-05-16T02:34:56.268Z,1.97
2019-05-16T02:35:56.253Z,2.03
2019-05-16T02:37:18.037Z,2.07
2019-05-16T02:37:57.325Z,2.12
2019-05-16T02:38:56.218Z,2.17
2019-05-16T02:39:56.208Z,2.15
2019-05-16T02:40:56.200Z,2.19
2019-05-16T02:41:56.199Z,2.22
2019-05-16T02:42:56.490Z,2.30
2019-05-16T02:43:56.157Z,2.30
2019-05-16T02:44:56.198Z,2.25
2019-05-16T02:45:56.160Z,2.39
2019-05-16T02:46:56.138Z,2.37
2019-05-16T02:47:56.174Z,2.42
2019-05-16T02:48:56.124Z,2.45
2019-05-16T02:49:56.096Z,2.48
2019-05-16T02:50:56.096Z,2.54
2019-05-16T02:51:56.090Z,2.51
2019-05-16T02:52:56.081Z,2.42
2019-05-16T02:53:56.095Z,2.60
2019-05-16T02:54:56.065Z,2.50
2019-05-16T02:55:56.032Z,2.68
2019-05-16T02:56:56.028Z,2.72
2019-05-16T02:57:56.070Z,2.71
2019-05-16T02:58:56.001Z,2.66
2019-05-16T02:59:56.011Z,2.75
2019-05-16T03:00:56.038Z,2.78
2019-05-16T03:02:03.669Z,2.75
2019-05-16T03:02:55.954Z,2.81
2019-05-16T03:03:55.947Z,2.82
2019-05-16T03:04:55.935Z,2.99
2019-05-16T03:05:55.936Z,2.97
2019-05-16T03:06:55.971Z,2.99
2019-05-16T03:07:55.917Z,3.04
2019-05-16T03:08:55.902Z,3.04
2019-05-16T03:09:55.979Z,3.11
2019-05-16T03:10:55.880Z,3.12
2019-05-16T03:11:55.877Z,3.18
2019-05-16T03:12:55.915Z,3.18
2019-05-16T03:13:55.839Z,3.23
2019-05-16T03:14:55.842Z,3.25
2019-05-16T03:15:55.826Z,3.35
2019-05-16T03:16:55.848Z,3.44
2019-05-16T03:17:59.019Z,3.49
2019-05-16T03:18:56.790Z,3.66
2019-05-16T03:19:55.788Z,3.52
2019-05-16T03:20:55.813Z,3.55
2019-05-16T03:21:55.760Z,3.56
2019-05-16T03:22:55.766Z,3.69
2019-05-16T03:23:55.740Z,3.67
2019-05-16T03:24:55.741Z,3.85
2019-05-16T03:25:55.714Z,3.99
2019-05-16T03:26:55.705Z,4.00
2019-05-16T03:27:55.749Z,4.09
2019-05-16T03:28:55.689Z,4.12
2019-05-16T03:29:55.667Z,4.28
2019-05-16T03:30:55.710Z,4.31
2019-05-16T03:31:55.736Z,4.21
2019-05-16T03:32:55.660Z,4.24
2019-05-16T03:34:07.211Z,4.36
2019-05-16T03:34:56.618Z,4.34
2019-05-16T03:35:56.062Z,4.45
2019-05-16T03:36:55.629Z,4.48
2019-05-16T03:38:00.593Z,4.49
2019-05-16T03:38:56.583Z,4.57
2019-05-16T03:39:55.565Z,4.61
2019-05-16T03:40:55.623Z,4.66
2019-05-16T03:41:55.554Z,4.72
2019-05-16T03:42:55.527Z,4.89
2019-05-16T03:43:55.525Z,5.09
2019-05-16T03:44:55.597Z,5.07
2019-05-16T03:45:55.515Z,5.25
2019-05-16T03:46:55.504Z,5.32
2019-05-16T03:47:55.486Z,5.24
2019-05-16T03:48:55.475Z,5.40
2019-05-16T03:49:55.457Z,5.48
2019-05-16T03:50:55.465Z,5.51
2019-05-16T03:51:55.577Z,5.67
2019-05-16T03:52:55.421Z,5.76
2019-05-16T03:53:55.416Z,5.85
2019-05-16T03:54:55.405Z,5.88
2019-05-16T03:55:55.392Z,6.03
2019-05-16T03:56:55.385Z,6.09
2019-05-16T03:57:55.415Z,6.24
2019-05-16T03:58:55.355Z,6.35
2019-05-16T03:59:55.414Z,6.45
2019-05-16T04:00:55.592Z,6.61
2019-05-16T04:01:55.336Z,6.73
2019-05-16T04:02:55.355Z,6.75
2019-05-16T04:03:55.351Z,6.83
2019-05-16T04:04:55.299Z,6.92
2019-05-16T04:06:02.281Z,7.06
2019-05-16T04:06:55.272Z,7.04
2019-05-16T04:08:10.150Z,7.16
2019-05-16T04:08:56.291Z,7.26
2019-05-16T04:09:55.242Z,7.42
2019-05-16T04:10:55.241Z,7.55
2019-05-16T04:11:55.220Z,7.46
2019-05-16T04:12:55.240Z,7.50
2019-05-16T04:13:55.209Z,7.69
2019-05-16T04:14:55.230Z,7.77
2019-05-16T04:15:55.188Z,7.86
2019-05-16T04:16:55.204Z,7.91
2019-05-16T04:17:55.150Z,7.99
2019-05-16T04:18:55.152Z,8.24
2019-05-16T04:19:55.173Z,8.20
2019-05-16T04:20:55.121Z,8.24
2019-05-16T04:21:55.162Z,8.32
2019-05-16T04:22:55.096Z,8.38
2019-05-16T04:23:55.088Z,8.41
2019-05-16T04:24:55.085Z,8.46
2019-05-16T04:25:55.121Z,8.59
2019-05-16T04:26:55.062Z,8.60
2019-05-16T04:27:55.108Z,8.62
2019-05-16T04:28:55.036Z,8.67
2019-05-16T04:29:55.029Z,8.77
2019-05-16T04:30:55.013Z,8.78
2019-05-16T04:31:55.066Z,8.83
2019-05-16T04:32:55.001Z,8.86
2019-05-16T04:33:55.006Z,8.92
2019-05-16T04:34:54.970Z,8.98
2019-05-16T04:35:54.957Z,8.98
2019-05-16T04:36:55.067Z,9.12
2019-05-16T04:38:02.742Z,9.14
2019-05-16T04:38:54.926Z,9.27
2019-05-16T04:39:54.922Z,9.24
2019-05-16T04:40:54.903Z,9.23
2019-05-16T04:41:54.894Z,9.34
2019-05-16T04:42:54.897Z,9.33
2019-05-16T04:43:54.875Z,9.41
2019-05-16T04:44:54.882Z,9.52
2019-05-16T04:45:54.884Z,9.50
2019-05-16T04:46:54.854Z,9.62
2019-05-16T04:47:54.909Z,9.62
2019-05-16T04:48:54.818Z,9.60
2019-05-16T04:49:54.837Z,9.60
2019-05-16T04:50:54.811Z,9.73
2019-05-16T04:51:54.786Z,9.70
2019-05-16T04:52:54.839Z,9.80
2019-05-16T04:53:54.804Z,9.84
2019-05-16T04:54:54.751Z,9.85
2019-05-16T04:55:54.749Z,9.93
2019-05-16T04:56:54.730Z,9.90
2019-05-16T04:57:54.784Z,9.93
2019-05-16T04:58:54.709Z,10.08
2019-05-16T04:59:54.741Z,10.06
2019-05-16T05:00:54.686Z,10.10
2019-05-16T05:01:54.690Z,10.06
2019-05-16T05:02:54.669Z,10.08
2019-05-16T05:04:06.611Z,10.06
2019-05-16T05:04:55.777Z,10.14
2019-05-16T05:05:54.689Z,10.24
2019-05-16T05:06:55.984Z,10.23
2019-05-16T05:07:54.619Z,10.36
2019-05-16T05:08:58.723Z,10.34
2019-05-16T05:11:04.401Z,10.39
2019-05-16T05:12:04.985Z,10.42
2019-05-16T05:13:04.357Z,10.60
2019-05-16T05:14:04.328Z,10.65
2019-05-16T05:15:04.331Z,10.61
2019-05-16T05:16:04.360Z,10.76
2019-05-16T05:17:05.527Z,10.76
2019-05-16T05:18:04.327Z,10.79
2019-05-16T05:19:04.275Z,10.72
2019-05-16T05:20:04.268Z,10.78
2019-05-16T05:21:04.291Z,10.90
2019-05-16T05:22:04.302Z,10.80
2019-05-16T05:23:04.241Z,10.95
2019-05-16T05:24:04.222Z,10.94
2019-05-16T05:25:04.215Z,10.91
2019-05-16T05:26:04.244Z,11.11
2019-05-16T05:27:04.259Z,11.18
2019-05-16T05:28:04.223Z,11.33
2019-05-16T05:29:04.172Z,11.56
2019-05-16T05:30:04.168Z,11.61
2019-05-16T05:31:04.161Z,11.79
2019-05-16T05:32:05.294Z,11.88
2019-05-16T05:33:04.181Z,11.91
2019-05-16T05:34:04.137Z,12.00
2019-05-16T05:35:04.114Z,12.05
2019-05-16T05:36:04.106Z,12.04
2019-05-16T05:37:04.086Z,12.17
2019-05-16T05:38:04.122Z,12.17
2019-05-16T05:39:11.533Z,12.30
2019-05-16T05:40:05.050Z,12.29
2019-05-16T05:41:04.040Z,12.28
2019-05-16T05:42:11.021Z,12.28
2019-05-16T05:43:04.026Z,12.32
2019-05-16T05:44:04.025Z,12.30
2019-05-16T05:45:04.000Z,12.33
2019-05-16T05:46:04.001Z,12.40
2019-05-16T05:47:03.986Z,12.48
2019-05-16T05:48:04.052Z,12.58
2019-05-16T05:49:04.001Z,12.58
2019-05-16T05:50:04.031Z,12.55
2019-05-16T05:51:03.935Z,12.66
2019-05-16T05:52:03.935Z,12.63
2019-05-16T05:53:03.915Z,12.62
2019-05-16T05:54:03.907Z,12.77
2019-05-16T05:55:03.898Z,12.79
2019-05-16T05:56:03.917Z,12.79
2019-05-16T05:57:03.875Z,12.79
2019-05-16T05:58:03.857Z,12.71
2019-05-16T05:59:03.856Z,12.77
2019-05-16T06:00:03.911Z,12.76
2019-05-16T06:01:03.836Z,12.77
2019-05-16T06:02:03.827Z,12.80
2019-05-16T06:03:03.807Z,12.71
2019-05-16T06:04:03.807Z,12.81
2019-05-16T06:05:03.780Z,12.72
2019-05-16T06:06:03.863Z,12.84
2019-05-16T06:07:03.764Z,12.90
2019-05-16T06:08:03.788Z,12.87
2019-05-16T06:09:03.758Z,12.87
2019-05-16T06:10:03.749Z,12.95
2019-05-16T06:11:03.727Z,13.05
2019-05-16T06:12:03.764Z,13.08
2019-05-16T06:13:03.704Z,13.16
2019-05-16T06:14:10.679Z,13.14
2019-05-16T06:15:09.016Z,13.35
2019-05-16T06:16:04.666Z,13.24
2019-05-16T06:17:03.661Z,13.27
2019-05-16T06:18:03.657Z,13.29
2019-05-16T06:19:03.665Z,13.30
2019-05-16T06:20:03.639Z,13.29
2019-05-16T06:21:03.617Z,13.16
2019-05-16T06:22:03.650Z,13.30
2019-05-16T06:23:03.599Z,13.27
2019-05-16T06:24:03.653Z,13.24
2019-05-16T06:25:03.575Z,13.27
2019-05-16T06:26:03.561Z,13.29
2019-05-16T06:27:03.611Z,13.24
2019-05-16T06:28:03.555Z,13.32
2019-05-16T06:29:03.525Z,13.30
2019-05-16T06:30:03.539Z,13.32
2019-05-16T06:31:03.512Z,13.29
2019-05-16T06:32:03.619Z,13.27
2019-05-16T06:33:03.482Z,13.27
2019-05-16T06:34:08.034Z,13.45
2019-05-16T06:35:04.463Z,13.49
2019-05-16T06:36:03.456Z,13.45
2019-05-16T06:37:03.464Z,13.42
2019-05-16T06:38:03.496Z,13.47
2019-05-16T06:39:03.420Z,13.40
2019-05-16T06:40:03.417Z,13.40
2019-05-16T06:41:03.398Z,13.42
2019-05-16T06:42:03.395Z,13.39
2019-05-16T06:43:03.434Z,13.45
2019-05-16T06:44:03.400Z,13.53
2019-05-16T06:45:03.360Z,13.43
2019-05-16T06:46:11.206Z,13.51
2019-05-16T06:47:15.811Z,13.54
2019-05-16T06:48:04.332Z,13.55
2019-05-16T06:49:03.329Z,13.64
2019-05-16T06:50:03.331Z,13.57
2019-05-16T06:51:03.466Z,13.65
2019-05-16T06:52:03.286Z,13.60
2019-05-16T06:53:03.385Z,13.63
2019-05-16T06:54:03.268Z,13.68
2019-05-16T06:55:03.253Z,13.85
2019-05-16T06:56:03.275Z,13.82
2019-05-16T06:57:03.244Z,13.88
2019-05-16T06:58:03.227Z,13.86
2019-05-16T06:59:03.208Z,13.83
2019-05-16T07:00:03.203Z,13.86
2019-05-16T07:01:03.836Z,13.88
2019-05-16T07:02:03.190Z,13.78
2019-05-16T07:03:03.177Z,13.76
2019-05-16T07:04:05.028Z,13.83
2019-05-16T07:05:03.146Z,13.93
2019-05-16T07:06:03.147Z,13.88
2019-05-16T07:07:03.324Z,13.83
2019-05-16T07:08:03.188Z,13.76
2019-05-16T07:09:03.112Z,13.79
2019-05-16T07:10:04.661Z,13.85
2019-05-16T07:11:03.116Z,13.86
2019-05-16T07:12:03.075Z,13.86
2019-05-16T07:13:03.069Z,13.98
2019-05-16T07:14:03.108Z,13.94
2019-05-16T07:15:03.063Z,14.05
2019-05-16T07:16:03.030Z,14.00
2019-05-16T07:17:03.056Z,14.03
2019-05-16T07:18:13.053Z,14.18
2019-05-16T07:19:03.001Z,14.26
2019-05-16T07:20:03.003Z,14.26
2019-05-16T07:21:02.971Z,14.21
2019-05-16T07:22:02.997Z,14.18
2019-05-16T07:23:02.947Z,14.12
2019-05-16T07:24:02.945Z,14.28
2019-05-16T07:25:02.962Z,14.33
2019-05-16T07:26:02.919Z,14.28
2019-05-16T07:27:02.917Z,14.26
2019-05-16T07:28:03.057Z,14.21
2019-05-16T07:29:02.882Z,14.28
2019-05-16T07:30:02.873Z,14.40
2019-05-16T07:31:14.501Z,14.33
2019-05-16T07:32:03.864Z,14.40
2019-05-16T07:33:02.870Z,14.16
2019-05-16T07:34:02.909Z,14.16
2019-05-16T07:35:02.823Z,14.15
2019-05-16T07:36:02.866Z,14.09
2019-05-16T07:37:02.820Z,14.15
2019-05-16T07:38:02.798Z,14.15
2019-05-16T07:39:02.849Z,14.18
2019-05-16T07:40:16.208Z,14.21
2019-05-16T07:41:03.765Z,14.18
2019-05-16T07:42:02.753Z,14.36
2019-05-16T07:43:02.739Z,14.27
2019-05-16T07:44:02.736Z,14.45
2019-05-16T07:45:02.748Z,14.38
2019-05-16T07:46:02.725Z,14.40
2019-05-16T07:47:02.696Z,14.45
2019-05-16T07:48:02.688Z,14.44
2019-05-16T07:49:02.675Z,14.44
2019-05-16T07:50:12.212Z,14.44
2019-05-16T07:51:02.691Z,14.53
2019-05-16T07:52:02.654Z,14.48
2019-05-16T07:53:02.635Z,14.49
2019-05-16T07:54:02.614Z,14.41
2019-05-16T07:55:04.085Z,14.44
2019-05-16T07:56:02.616Z,14.58
2019-05-16T07:57:16.110Z,14.56
2019-05-16T07:58:03.580Z,14.56
2019-05-16T07:59:02.598Z,14.48
2019-05-16T08:00:02.609Z,14.56
2019-05-16T08:01:07.679Z,14.53
2019-05-16T08:02:03.542Z,14.53
2019-05-16T08:03:02.578Z,14.55
2019-05-16T08:04:02.555Z,14.59
2019-05-16T08:05:02.501Z,14.59
2019-05-16T08:06:02.507Z,14.53
2019-05-16T08:07:05.630Z,14.58
2019-05-16T08:08:02.492Z,14.59
2019-05-16T08:09:02.484Z,14.56
2019-05-16T08:10:02.453Z,14.59
2019-05-16T08:11:02.434Z,14.53
2019-05-16T08:12:05.820Z,14.51
2019-05-16T08:14:03.401Z,14.66
2019-05-16T08:15:02.455Z,14.67
2019-05-16T08:16:02.385Z,14.85
2019-05-16T08:17:02.420Z,14.96
2019-05-16T08:18:03.398Z,14.96
2019-05-16T08:19:02.355Z,14.90
2019-05-16T08:20:02.347Z,14.83
2019-05-16T08:21:02.374Z,14.93
2019-05-16T08:22:11.220Z,14.89
2019-05-16T08:23:02.314Z,14.87
2019-05-16T08:24:07.203Z,15.04
2019-05-16T08:25:03.299Z,15.03
2019-05-16T08:26:02.280Z,14.96
2019-05-16T08:27:02.280Z,15.11
2019-05-16T08:28:02.304Z,15.11
2019-05-16T08:29:02.351Z,15.20
2019-05-16T08:30:02.726Z,15.14
2019-05-16T08:31:02.244Z,15.05
2019-05-16T08:32:02.448Z,15.04
2019-05-16T08:33:02.775Z,14.96
2019-05-16T08:34:02.229Z,15.10
2019-05-16T08:35:02.243Z,14.97
2019-05-16T08:37:03.194Z,14.89
2019-05-16T08:38:02.154Z,14.93
2019-05-16T08:39:02.134Z,14.96
2019-05-16T08:40:02.188Z,14.99
2019-05-16T08:42:08.158Z,14.89
2019-05-16T08:43:03.119Z,14.73
2019-05-16T08:44:02.085Z,14.71
2019-05-16T08:45:02.313Z,14.90
2019-05-16T08:46:02.087Z,14.95
2019-05-16T08:47:06.284Z,14.87
2019-05-16T08:48:02.042Z,14.85
2019-05-16T08:49:02.036Z,15.07
2019-05-16T08:50:02.029Z,15.01
2019-05-16T08:50:05.094Z,14.61
2019-05-16T08:50:11.292Z,14.97
2019-05-16T08:51:03.046Z,15.12
2019-05-16T08:52:02.001Z,15.12
2019-05-16T08:53:02.925Z,15.14
2019-05-16T08:55:03.665Z,15.35
2019-05-16T08:56:02.766Z,15.15
2019-05-16T08:57:20.864Z,15.23
2019-05-16T08:58:02.927Z,15.08
2019-05-16T08:59:03.458Z,15.14
2019-05-16T09:00:01.987Z,15.11
2019-05-16T09:01:02.505Z,15.15
2019-05-16T09:02:03.218Z,15.01
2019-05-16T09:03:01.993Z,15.17
2019-05-16T09:04:01.990Z,15.19
2019-05-16T09:05:04.916Z,15.17
2019-05-16T09:06:03.072Z,15.32
2019-05-16T09:07:02.840Z,15.44
2019-05-16T09:08:01.822Z,15.54
2019-05-16T09:09:20.453Z,15.58
2019-05-16T09:10:02.804Z,15.59
2019-05-16T09:10:30.562Z,15.15
2019-05-16T09:10:31.602Z,14.86
2019-05-16T09:11:23.820Z,15.66
2019-05-16T09:12:02.784Z,15.77
2019-05-16T09:13:01.797Z,15.80
2019-05-16T09:14:01.882Z,15.81
2019-05-16T09:15:01.766Z,15.84
2019-05-16T09:16:01.783Z,15.84
2019-05-16T09:17:01.783Z,15.91
2019-05-16T09:18:01.724Z,15.78
2019-05-16T09:19:01.720Z,15.83
2019-05-16T09:20:01.705Z,15.78
2019-05-16T09:21:01.685Z,15.60
2019-05-16T09:22:01.721Z,15.59
2019-05-16T09:23:01.665Z,15.47
2019-05-16T09:24:01.696Z,15.54
2019-05-16T09:25:01.647Z,15.51
2019-05-16T09:26:08.618Z,15.54
2019-05-16T09:27:01.633Z,15.56
2019-05-16T09:28:01.623Z,15.51
2019-05-16T09:29:01.635Z,15.63
2019-05-16T09:30:01.644Z,15.63
2019-05-16T09:31:01.589Z,15.72
2019-05-16T09:32:15.330Z,15.78
2019-05-16T09:33:02.588Z,15.85
2019-05-16T09:34:01.549Z,15.87
2019-05-16T09:35:01.548Z,15.81
2019-05-16T09:36:01.548Z,15.81
2019-05-16T09:37:02.144Z,15.84
2019-05-16T09:38:01.531Z,15.83
2019-05-16T09:39:01.494Z,15.62
2019-05-16T09:40:01.479Z,15.60
2019-05-16T09:41:01.570Z,15.56
2019-05-16T09:42:01.484Z,15.59
2019-05-16T09:43:01.487Z,15.58
2019-05-16T09:44:01.438Z,15.43
2019-05-16T09:45:01.431Z,15.50
2019-05-16T09:46:04.015Z,15.51
2019-05-16T09:47:01.427Z,15.59
2019-05-16T09:48:01.397Z,15.56
2019-05-16T09:49:15.813Z,15.66
2019-05-16T09:50:02.388Z,15.83
2019-05-16T09:51:01.368Z,15.84
2019-05-16T09:52:01.393Z,15.80
2019-05-16T09:53:01.340Z,15.84
2019-05-16T09:54:01.328Z,15.85
2019-05-16T09:55:01.360Z,15.91
2019-05-16T09:56:01.307Z,15.96
2019-05-16T09:57:01.309Z,15.93
2019-05-16T09:58:08.830Z,15.95
2019-05-16T09:59:01.285Z,15.88
2019-05-16T10:00:01.274Z,15.81
2019-05-16T10:01:01.268Z,15.90
2019-05-16T10:02:01.249Z,16.06
2019-05-16T10:03:01.242Z,15.98
2019-05-16T10:04:01.275Z,16.03
2019-05-16T10:05:01.273Z,16.05
2019-05-16T10:06:01.208Z,16.03
2019-05-16T10:07:01.220Z,16.05
2019-05-16T10:08:01.226Z,16.06
2019-05-16T10:09:01.174Z,16.05
2019-05-16T10:10:01.167Z,16.08
2019-05-16T10:11:01.176Z,16.06
2019-05-16T10:12:11.874Z,16.13
2019-05-16T10:13:02.201Z,16.06
2019-05-16T10:14:01.146Z,16.16
2019-05-16T10:15:01.114Z,16.25
2019-05-16T10:16:01.103Z,16.36
2019-05-16T10:17:01.087Z,16.46
2019-05-16T10:18:01.080Z,16.44
2019-05-16T10:19:01.101Z,16.39
2019-05-16T10:20:01.098Z,16.39
2019-05-16T10:21:01.048Z,16.40
2019-05-16T10:22:01.057Z,16.37
2019-05-16T10:23:01.066Z,16.49
2019-05-16T10:24:01.028Z,16.43
2019-05-16T10:25:01.039Z,16.32
2019-05-16T10:26:01.010Z,16.40
2019-05-16T10:27:00.977Z,16.36
2019-05-16T10:28:00.965Z,16.39
2019-05-16T10:29:00.962Z,16.36
2019-05-16T10:30:08.942Z,16.49
2019-05-16T10:31:00.930Z,16.52
2019-05-16T10:32:00.924Z,16.36
2019-05-16T10:33:01.099Z,16.37
2019-05-16T10:34:00.898Z,16.33
2019-05-16T10:35:00.899Z,16.29
2019-05-16T10:36:00.948Z,16.39
2019-05-16T10:37:00.865Z,16.47
2019-05-16T10:38:00.856Z,16.62
2019-05-16T10:39:00.848Z,16.67
2019-05-16T10:40:00.882Z,16.62
2019-05-16T10:41:00.853Z,16.54
2019-05-16T10:42:00.968Z,16.54
2019-05-16T10:43:00.816Z,16.61
2019-05-16T10:44:00.817Z,16.52
2019-05-16T10:45:00.822Z,16.62
2019-05-16T10:46:00.775Z,16.65
2019-05-16T10:47:00.794Z,16.64
2019-05-16T10:48:00.766Z,16.65
2019-05-16T10:49:00.746Z,16.73
2019-05-16T10:50:00.750Z,16.77
2019-05-16T10:51:00.727Z,16.88
2019-05-16T10:52:00.715Z,16.76
2019-05-16T10:53:22.450Z,16.79
2019-05-16T10:54:09.526Z,16.74
2019-05-16T10:55:02.736Z,16.70
2019-05-16T10:56:00.771Z,16.73
2019-05-16T10:57:00.813Z,16.84
2019-05-16T10:58:00.645Z,17.01
2019-05-16T10:59:37.725Z,17.10
2019-05-16T11:00:12.505Z,17.14
2019-05-16T11:01:23.025Z,17.16
2019-05-16T11:02:08.176Z,17.28
2019-05-16T11:03:00.626Z,17.41
2019-05-16T11:04:00.576Z,17.50
2019-05-16T11:05:21.686Z,17.53
2019-05-16T11:06:05.809Z,17.62
2019-05-16T11:07:01.549Z,17.69
2019-05-16T11:08:00.800Z,17.76
2019-05-16T11:09:00.578Z,17.63
2019-05-16T11:10:03.368Z,17.49
2019-05-16T11:11:00.521Z,17.54
2019-05-16T11:12:00.539Z,17.62
2019-05-16T11:13:00.497Z,17.63
2019-05-16T11:14:00.472Z,17.62
2019-05-16T11:15:00.469Z,17.76
2019-05-16T11:16:00.465Z,17.84
2019-05-16T11:17:00.469Z,17.73
2019-05-16T11:18:00.429Z,17.81
2019-05-16T11:19:14.150Z,17.76
2019-05-16T11:20:01.416Z,17.83
2019-05-16T11:21:00.441Z,17.90
2019-05-16T11:22:00.422Z,17.90
2019-05-16T11:23:00.410Z,17.84
2019-05-16T11:24:00.364Z,17.84
2019-05-16T11:25:00.367Z,17.97
2019-05-16T11:26:00.343Z,18.01
2019-05-16T11:27:00.366Z,18.13
2019-05-16T11:28:00.322Z,18.26
2019-05-16T11:29:00.340Z,18.23
2019-05-16T11:30:00.327Z,18.33
2019-05-16T11:31:03.784Z,18.42
2019-05-16T11:32:00.353Z,18.36
2019-05-16T11:33:00.305Z,18.45
2019-05-16T11:34:07.237Z,18.30
2019-05-16T11:35:00.246Z,18.12
2019-05-16T11:36:00.242Z,17.97
2019-05-16T11:37:00.232Z,17.97
2019-05-16T11:38:00.244Z,17.91
2019-05-16T11:39:01.930Z,18.02
2019-05-16T11:40:00.216Z,17.99
2019-05-16T11:41:00.185Z,18.18
2019-05-16T11:42:00.171Z,18.20
2019-05-16T11:43:10.583Z,18.38
2019-05-16T11:44:01.167Z,18.48
2019-05-16T11:45:00.172Z,18.45
2019-05-16T11:46:00.127Z,18.36
2019-05-16T11:47:00.126Z,18.39
2019-05-16T11:48:00.108Z,18.30
2019-05-16T11:49:00.158Z,18.41
2019-05-16T11:50:00.083Z,18.26
2019-05-16T11:51:00.107Z,18.12
2019-05-16T11:52:00.129Z,18.05
2019-05-16T11:53:00.054Z,18.05
2019-05-16T11:54:00.218Z,17.99
2019-05-16T11:55:00.042Z,17.86
2019-05-16T11:56:01.933Z,18.02
2019-05-16T11:57:00.008Z,18.02
2019-05-16T11:58:00.023Z,17.88
2019-05-16T11:58:59.997Z,17.99
2019-05-16T12:00:00.028Z,18.05
2019-05-16T12:00:59.976Z,18.13
2019-05-16T12:01:59.961Z,18.21
2019-05-16T12:02:59.953Z,18.31
2019-05-16T12:03:59.967Z,18.26
2019-05-16T12:04:59.924Z,18.26
2019-05-16T12:06:11.025Z,18.23
2019-05-16T12:06:59.901Z,18.33
2019-05-16T12:07:59.897Z,18.46
2019-05-16T12:08:59.889Z,18.49
2019-05-16T12:09:59.867Z,18.43
2019-05-16T12:10:59.873Z,18.27
2019-05-16T12:12:04.365Z,18.41
2019-05-16T12:12:59.848Z,18.48
2019-05-16T12:13:59.879Z,18.57
2019-05-16T12:14:59.843Z,18.46
2019-05-16T12:15:59.802Z,18.52
2019-05-16T12:16:59.856Z,18.45
2019-05-16T12:18:04.642Z,18.42
2019-05-16T12:19:00.802Z,18.36
2019-05-16T12:19:59.765Z,18.38
2019-05-16T12:20:59.755Z,18.48
2019-05-16T12:21:59.744Z,18.43
2019-05-16T12:22:59.751Z,18.39
2019-05-16T12:23:59.748Z,18.24
2019-05-16T12:24:59.708Z,18.31
2019-05-16T12:26:00.250Z,18.34
2019-05-16T12:27:00.820Z,18.38
2019-05-16T12:27:59.673Z,18.15
2019-05-16T12:28:59.674Z,18.21
2019-05-16T12:29:59.681Z,18.33
2019-05-16T12:30:59.652Z,18.24
2019-05-16T12:32:02.864Z,18.24
2019-05-16T12:32:59.639Z,18.33
2019-05-16T12:33:59.990Z,18.21
2019-05-16T12:34:59.607Z,18.20
2019-05-16T12:35:59.622Z,18.30
2019-05-16T12:36:59.585Z,18.26
2019-05-16T12:38:08.095Z,18.48
2019-05-16T12:38:59.568Z,18.51
2019-05-16T12:39:59.563Z,18.45
2019-05-16T12:40:59.538Z,18.33
2019-05-16T12:42:00.189Z,18.26
2019-05-16T12:42:59.520Z,18.23
2019-05-16T12:43:59.511Z,18.26
2019-05-16T12:44:59.519Z,18.34
2019-05-16T12:45:59.525Z,18.58
2019-05-16T12:46:59.529Z,18.70
2019-05-16T12:47:59.459Z,18.86
2019-05-16T12:48:59.452Z,18.85
2019-05-16T12:49:59.460Z,18.81
2019-05-16T12:50:59.439Z,18.76
2019-05-16T12:51:59.416Z,18.74
2019-05-16T12:52:59.423Z,18.83
2019-05-16T12:53:59.405Z,18.96
2019-05-16T12:54:59.402Z,18.98
2019-05-16T12:55:59.373Z,19.05
2019-05-16T12:56:59.371Z,18.88
2019-05-16T12:58:12.696Z,18.89
2019-05-16T12:59:00.355Z,18.85
2019-05-16T12:59:59.331Z,18.86
2019-05-16T13:00:59.391Z,18.83
2019-05-16T13:01:59.315Z,18.78
2019-05-16T13:02:59.305Z,18.86
2019-05-16T13:03:59.289Z,18.79